Miesville, Minnesota
Current Conditions -  °F | °C
As of 10:54 PM on Wednesday 22 Oct 2014 (Local Time) from KSYN Reporting Station
Clear Clear  
Wind Chill: 55°   Ceiling: Unl
Heat Index: 55°   Visibility: 10mi
Dew Point: 40°   Wind: 12mph
Humidity: 58%   Direction: 170°S
Pressure: 30.05"   Gusts: 20mph
Location:  44.4763°N, 92.8054°W
Report Text: KSYN 230354Z AUTO 17010G17KT 10SM CLR 13/05 A3005 RMK AO2 T01280046
Loading
Personal Weather Stations






























Interactive Weather Map
Tropical Storm Tracking
New forecast layout! Learn more

10-Day Weather Forecast

Advertisements
Track Severe Weather on mobile